Nearby METAR Reports

 

KFNL - Ft Collins/Lovel, Colorado, USA
Distance from station: E 23mi, 37km
Updated: Thu, 24-Sep-2020 10:56am MDT
Clear
Clear
 Wind from W
Wind: W 5 mph , 7 km/h
Temperature: 70°F , 21°C
Dew Point: 43°F , 6°C
Humidity: 38%
Barometer: 30.09 inHg , 1019 hPa
Clouds: Clear
Visibility: 10 miles , 16 km
2020/09/24 16:56 KFNL 241656Z 27004KT 10SM CLR 21/06 A3009 RMK AO2 SLP134 T02110061
KLMO - Longmont/Vbrand, Colorado, USA
Distance from station: SE 26mi, 41km
Updated: Thu, 24-Sep-2020 11:15am MDT
Clear
Clear
 Wind from calm
Wind: Calm
Temperature: 73°F , 23°C
Dew Point: 39°F , 4°C
Humidity: 29%
Barometer: 30.10 inHg , 1019.3 hPa
Clouds: Clear
Visibility: 10 miles , 16 km
2020/09/24 17:15 KLMO 241715Z AUTO 00000KT 10SM CLR 23/04 A3010 RMK AO2 T02320043
 
KBDU - Boulder Muni, Colorado, USA
Distance from station: SSE 32mi, 52km
Updated: Thu, 24-Sep-2020 11:29am MDT
Clear
Clear
 Wind from N
Wind: N 5 mph , 7 km/h
Temperature: 73°F , 23°C
Dew Point: 39°F , 4°C
Humidity: 29%
Barometer: 30.09 inHg , 1019 hPa
Clouds: Clear
Visibility: 10 miles , 16 km
2020/09/24 17:29 KBDU 241729Z AUTO 35004KT 10SM CLR 23/04 A3009 RMK AO2
KEIK - Erie Muni, Colorado, USA
Distance from station: SE 38mi, 61km
Updated: Thu, 24-Sep-2020 11:35am MDT
Clear
Clear
 Wind from SSE
Wind: SSE 6 mph , 9 km/h
Temperature: 82°F , 28°C
Dew Point: 28°F , -2°C
Humidity: 14%
Barometer: 30.07 inHg , 1018.3 hPa
Clouds: Clear
Visibility: 10 miles , 16 km
2020/09/24 17:35 KEIK 241735Z AUTO 15005KT 10SM CLR 28/M02 A3007 RMK AO2 T02761025 PWINO
 
KBJC - Broomfield/Jeffc, Colorado, USA
Distance from station: SSE 44mi, 70km
Updated: Thu, 24-Sep-2020 10:47am MDT
Partly cloudy
Partly cloudy
 Wind from ESE
Wind: ESE 8 mph , 13 km/h
Temperature: 81°F , 27°C
Dew Point: 30°F , -1°C
Humidity: 16%
Barometer: 30.13 inHg , 1020.3 hPa
Clouds: Partly cloudy
Visibility: 10 miles , 16 km
Cloud details: Partly cloudy 20000 ft
2020/09/24 16:47 KBJC 241647Z 12007KT 10SM SCT200 27/M01 A3013
KGXY - Greeley/Weld, Colorado, USA
Distance from station: E 44mi, 71km
Updated: Thu, 24-Sep-2020 10:56am MDT
Clear
Clear
 Wind from calm
Wind: Calm
Temperature: 73°F , 23°C
Dew Point: 43°F , 6°C
Humidity: 33%
Barometer: 30.08 inHg , 1018.6 hPa
Clouds: Clear
Visibility: 10 miles , 16 km
2020/09/24 16:56 KGXY 241656Z AUTO 00000KT 10SM CLR 23/06 A3008 RMK AO2 SLP149 T02330056
 
K33V - Walden, Colorado, USA
Distance from station: WNW 48mi, 77km
Updated: Thu, 24-Sep-2020 11:35am MDT
Clear
Clear
 Wind from SSW
Wind: SSW 7 mph , 11 km/h
Temperature: 70°F , 21°C
Dew Point: 27°F , -3°C
Humidity: 20%
Barometer: 30.32 inHg , 1026.8 hPa
Clouds: Clear
2020/09/24 17:35 K33V 241735Z AUTO 20006KT CLR 21/M03 A3032 RMK AO1
K0CO - Berthoud Pass, Colorado, USA
Distance from station: SSW 49mi, 79km
Updated: Thu, 24-Sep-2020 11:35am MDT
Clear
Clear
 Wind from NNW
Wind: NNW 9 mph , 15 km/h, Gust: 24 mph , 39 km/h
Temperature: 45°F , 7°C
Wind Chill: 40°F , 4°C
Dew Point: 28°F , -2°C
Humidity: 53%
Barometer: 30.63 inHg , 1037.3 hPa
Clouds: Clear
Visibility: 10 miles , 16 km
2020/09/24 17:35 K0CO 241735Z AUTO 33008G21KT 311V011 10SM CLR 07/M02 A3063 RMK AO2 PWINO